sensor_id;sensor_type;location;lat;lon;timestamp;P1;durP1;ratioP1;P2;durP2;ratioP2
54517;SDS011;40423;53.176;6.002;2022-12-29T00:01:29;7.97;;;5.22;;
54517;SDS011;40423;53.176;6.002;2022-12-29T00:03:55;6.82;;;5.15;;
54517;SDS011;40423;53.176;6.002;2022-12-29T00:06:20;6.88;;;4.88;;
54517;SDS011;40423;53.176;6.002;2022-12-29T00:08:46;6.93;;;4.80;;
54517;SDS011;40423;53.176;6.002;2022-12-29T00:11:13;5.10;;;4.60;;
54517;SDS011;40423;53.176;6.002;2022-12-29T00:13:44;5.15;;;4.65;;
54517;SDS011;40423;53.176;6.002;2022-12-29T00:16:29;5.00;;;4.50;;
54517;SDS011;40423;53.176;6.002;2022-12-29T00:18:55;4.78;;;3.88;;
54517;SDS011;40423;53.176;6.002;2022-12-29T00:21:22;7.05;;;5.10;;
54517;SDS011;40423;53.176;6.002;2022-12-29T00:24:09;6.25;;;5.00;;
54517;SDS011;40423;53.176;6.002;2022-12-29T00:29:45;7.70;;;5.53;;
54517;SDS011;40423;53.176;6.002;2022-12-29T00:35:25;6.68;;;5.18;;
54517;SDS011;40423;53.176;6.002;2022-12-29T00:38:03;6.00;;;5.40;;
54517;SDS011;40423;53.176;6.002;2022-12-29T00:40:49;6.25;;;5.65;;
54517;SDS011;40423;53.176;6.002;2022-12-29T00:43:33;7.07;;;5.50;;
54517;SDS011;40423;53.176;6.002;2022-12-29T00:46:18;6.28;;;5.68;;
54517;SDS011;40423;53.176;6.002;2022-12-29T00:48:43;6.47;;;5.38;;
54517;SDS011;40423;53.176;6.002;2022-12-29T00:53:53;5.47;;;4.93;;
54517;SDS011;40423;53.176;6.002;2022-12-29T00:56:19;11.07;;;5.18;;
54517;SDS011;40423;53.176;6.002;2022-12-29T00:58:45;7.40;;;4.93;;
54517;SDS011;40423;53.176;6.002;2022-12-29T01:01:11;7.47;;;6.07;;
54517;SDS011;40423;53.176;6.002;2022-12-29T01:03:37;6.47;;;4.93;;
54517;SDS011;40423;53.176;6.002;2022-12-29T01:06:04;6.78;;;4.93;;
54517;SDS011;40423;53.176;6.002;2022-12-29T01:08:32;5.40;;;4.25;;
54517;SDS011;40423;53.176;6.002;2022-12-29T01:10:59;7.15;;;4.70;;
54517;SDS011;40423;53.176;6.002;2022-12-29T01:13:36;6.20;;;4.72;;
54517;SDS011;40423;53.176;6.002;2022-12-29T01:16:03;6.28;;;4.97;;
54517;SDS011;40423;53.176;6.002;2022-12-29T01:18:30;8.00;;;4.20;;
54517;SDS011;40423;53.176;6.002;2022-12-29T01:21:05;6.70;;;4.30;;
54517;SDS011;40423;53.176;6.002;2022-12-29T01:23:31;6.25;;;4.10;;
54517;SDS011;40423;53.176;6.002;2022-12-29T01:25:57;6.45;;;4.70;;
54517;SDS011;40423;53.176;6.002;2022-12-29T01:28:34;6.55;;;4.32;;
54517;SDS011;40423;53.176;6.002;2022-12-29T01:31:00;6.97;;;3.95;;
54517;SDS011;40423;53.176;6.002;2022-12-29T01:33:30;6.80;;;3.85;;
54517;SDS011;40423;53.176;6.002;2022-12-29T01:35:59;4.97;;;4.18;;
54517;SDS011;40423;53.176;6.002;2022-12-29T01:38:32;7.72;;;4.00;;
54517;SDS011;40423;53.176;6.002;2022-12-29T01:40:59;5.90;;;4.32;;
54517;SDS011;40423;53.176;6.002;2022-12-29T01:46:40;6.47;;;4.47;;
54517;SDS011;40423;53.176;6.002;2022-12-29T01:49:12;5.75;;;4.70;;
54517;SDS011;40423;53.176;6.002;2022-12-29T01:51:51;6.38;;;5.40;;
54517;SDS011;40423;53.176;6.002;2022-12-29T01:54:30;8.70;;;5.60;;
54517;SDS011;40423;53.176;6.002;2022-12-29T01:57:01;8.25;;;5.00;;
54517;SDS011;40423;53.176;6.002;2022-12-29T01:59:34;6.70;;;5.30;;
54517;SDS011;40423;53.176;6.002;2022-12-29T02:02:03;8.02;;;5.13;;
54517;SDS011;40423;53.176;6.002;2022-12-29T02:04:33;6.25;;;5.05;;
54517;SDS011;40423;53.176;6.002;2022-12-29T02:07:03;6.93;;;4.25;;
54517;SDS011;40423;53.176;6.002;2022-12-29T02:09:33;8.82;;;5.10;;
54517;SDS011;40423;53.176;6.002;2022-12-29T02:11:59;7.45;;;4.85;;
54517;SDS011;40423;53.176;6.002;2022-12-29T02:14:29;5.68;;;4.75;;
54517;SDS011;40423;53.176;6.002;2022-12-29T02:16:59;8.82;;;4.80;;
54517;SDS011;40423;53.176;6.002;2022-12-29T02:24:49;2.08;;;1.60;;
54517;SDS011;40423;53.176;6.002;2022-12-29T02:27:44;3.47;;;2.10;;
54517;SDS011;40423;53.176;6.002;2022-12-29T02:41:21;7.50;;;3.88;;
54517;SDS011;40423;53.176;6.002;2022-12-29T02:46:28;4.80;;;2.33;;
54517;SDS011;40423;53.176;6.002;2022-12-29T02:49:05;1.45;;;0.70;;
54517;SDS011;40423;53.176;6.002;2022-12-29T02:54:23;1.60;;;1.02;;
54517;SDS011;40423;53.176;6.002;2022-12-29T02:59:36;3.70;;;2.42;;
54517;SDS011;40423;53.176;6.002;2022-12-29T03:08:28;6.35;;;2.92;;
54517;SDS011;40423;53.176;6.002;2022-12-29T03:10:47;4.68;;;2.90;;
54517;SDS011;40423;53.176;6.002;2022-12-29T03:22:06;6.45;;;2.60;;
54517;SDS011;40423;53.176;6.002;2022-12-29T03:24:59;7.07;;;2.13;;
54517;SDS011;40423;53.176;6.002;2022-12-29T03:28:00;4.95;;;1.98;;
54517;SDS011;40423;53.176;6.002;2022-12-29T03:30:29;6.70;;;2.53;;
54517;SDS011;40423;53.176;6.002;2022-12-29T03:32:59;6.75;;;2.45;;
54517;SDS011;40423;53.176;6.002;2022-12-29T03:35:30;7.72;;;1.83;;
54517;SDS011;40423;53.176;6.002;2022-12-29T03:38:02;7.53;;;1.85;;
54517;SDS011;40423;53.176;6.002;2022-12-29T03:40:41;7.43;;;2.25;;
54517;SDS011;40423;53.176;6.002;2022-12-29T03:43:10;4.70;;;1.73;;
54517;SDS011;40423;53.176;6.002;2022-12-29T03:45:38;2.72;;;1.35;;
54517;SDS011;40423;53.176;6.002;2022-12-29T03:48:04;6.25;;;2.00;;
54517;SDS011;40423;53.176;6.002;2022-12-29T03:50:30;10.00;;;3.47;;
54517;SDS011;40423;53.176;6.002;2022-12-29T03:52:58;5.78;;;1.98;;
54517;SDS011;40423;53.176;6.002;2022-12-29T03:55:27;3.72;;;1.80;;
54517;SDS011;40423;53.176;6.002;2022-12-29T03:57:53;4.57;;;1.85;;
54517;SDS011;40423;53.176;6.002;2022-12-29T04:00:22;4.68;;;1.85;;
54517;SDS011;40423;53.176;6.002;2022-12-29T04:02:47;4.00;;;1.83;;
54517;SDS011;40423;53.176;6.002;2022-12-29T04:05:13;5.57;;;1.85;;
54517;SDS011;40423;53.176;6.002;2022-12-29T04:07:39;4.25;;;1.60;;
54517;SDS011;40423;53.176;6.002;2022-12-29T04:10:05;5.72;;;1.80;;
54517;SDS011;40423;53.176;6.002;2022-12-29T04:12:33;6.80;;;1.77;;
54517;SDS011;40423;53.176;6.002;2022-12-29T04:14:59;7.32;;;1.48;;
54517;SDS011;40423;53.176;6.002;2022-12-29T04:17:24;6.40;;;1.80;;
54517;SDS011;40423;53.176;6.002;2022-12-29T04:19:50;7.22;;;1.98;;
54517;SDS011;40423;53.176;6.002;2022-12-29T04:22:16;6.50;;;1.65;;
54517;SDS011;40423;53.176;6.002;2022-12-29T04:24:42;9.85;;;2.53;;
54517;SDS011;40423;53.176;6.002;2022-12-29T04:27:07;7.60;;;2.00;;
54517;SDS011;40423;53.176;6.002;2022-12-29T04:29:33;9.05;;;1.55;;
54517;SDS011;40423;53.176;6.002;2022-12-29T04:31:59;7.05;;;1.98;;
54517;SDS011;40423;53.176;6.002;2022-12-29T04:34:24;13.25;;;2.40;;
54517;SDS011;40423;53.176;6.002;2022-12-29T04:36:50;8.82;;;2.47;;
54517;SDS011;40423;53.176;6.002;2022-12-29T04:39:16;9.15;;;1.83;;
54517;SDS011;40423;53.176;6.002;2022-12-29T04:41:41;8.38;;;2.03;;
54517;SDS011;40423;53.176;6.002;2022-12-29T04:44:11;11.75;;;2.40;;
54517;SDS011;40423;53.176;6.002;2022-12-29T04:46:40;11.40;;;2.00;;
54517;SDS011;40423;53.176;6.002;2022-12-29T04:49:08;12.77;;;2.22;;
54517;SDS011;40423;53.176;6.002;2022-12-29T04:51:34;14.07;;;2.35;;
54517;SDS011;40423;53.176;6.002;2022-12-29T04:54:00;11.98;;;2.38;;
54517;SDS011;40423;53.176;6.002;2022-12-29T04:56:26;14.38;;;2.70;;
54517;SDS011;40423;53.176;6.002;2022-12-29T04:58:51;8.60;;;2.40;;
54517;SDS011;40423;53.176;6.002;2022-12-29T05:01:17;16.67;;;3.03;;
54517;SDS011;40423;53.176;6.002;2022-12-29T05:03:43;9.10;;;2.15;;
54517;SDS011;40423;53.176;6.002;2022-12-29T05:06:08;11.68;;;2.28;;
54517;SDS011;40423;53.176;6.002;2022-12-29T05:08:34;17.80;;;2.35;;
54517;SDS011;40423;53.176;6.002;2022-12-29T05:11:00;14.88;;;2.75;;
54517;SDS011;40423;53.176;6.002;2022-12-29T05:13:26;13.98;;;2.72;;
54517;SDS011;40423;53.176;6.002;2022-12-29T05:15:52;14.85;;;3.13;;
54517;SDS011;40423;53.176;6.002;2022-12-29T05:18:18;10.57;;;2.60;;
54517;SDS011;40423;53.176;6.002;2022-12-29T05:20:44;14.57;;;2.50;;
54517;SDS011;40423;53.176;6.002;2022-12-29T05:23:10;16.20;;;3.38;;
54517;SDS011;40423;53.176;6.002;2022-12-29T05:25:36;12.48;;;2.42;;
54517;SDS011;40423;53.176;6.002;2022-12-29T05:28:02;16.98;;;2.50;;
54517;SDS011;40423;53.176;6.002;2022-12-29T05:30:28;19.13;;;2.60;;
54517;SDS011;40423;53.176;6.002;2022-12-29T05:32:54;11.25;;;2.05;;
54517;SDS011;40423;53.176;6.002;2022-12-29T05:35:19;16.92;;;2.55;;
54517;SDS011;40423;53.176;6.002;2022-12-29T05:37:45;18.35;;;2.60;;
54517;SDS011;40423;53.176;6.002;2022-12-29T05:40:11;15.70;;;2.72;;
54517;SDS011;40423;53.176;6.002;2022-12-29T05:42:37;13.77;;;3.67;;
54517;SDS011;40423;53.176;6.002;2022-12-29T05:45:02;14.52;;;2.72;;
54517;SDS011;40423;53.176;6.002;2022-12-29T05:47:28;11.20;;;2.30;;
54517;SDS011;40423;53.176;6.002;2022-12-29T05:49:54;14.25;;;2.53;;
54517;SDS011;40423;53.176;6.002;2022-12-29T05:52:20;11.88;;;2.20;;
54517;SDS011;40423;53.176;6.002;2022-12-29T05:54:46;15.02;;;2.78;;
54517;SDS011;40423;53.176;6.002;2022-12-29T05:57:11;10.63;;;2.25;;
54517;SDS011;40423;53.176;6.002;2022-12-29T05:59:37;13.10;;;2.08;;
54517;SDS011;40423;53.176;6.002;2022-12-29T06:02:03;13.88;;;2.92;;
54517;SDS011;40423;53.176;6.002;2022-12-29T06:04:29;19.10;;;3.10;;
54517;SDS011;40423;53.176;6.002;2022-12-29T06:06:54;16.08;;;2.40;;
54517;SDS011;40423;53.176;6.002;2022-12-29T06:09:20;18.20;;;3.08;;
54517;SDS011;40423;53.176;6.002;2022-12-29T06:11:46;14.55;;;2.75;;
54517;SDS011;40423;53.176;6.002;2022-12-29T06:14:11;12.85;;;2.75;;
54517;SDS011;40423;53.176;6.002;2022-12-29T06:16:37;15.32;;;2.55;;
54517;SDS011;40423;53.176;6.002;2022-12-29T06:19:09;23.35;;;2.90;;
54517;SDS011;40423;53.176;6.002;2022-12-29T06:21:35;17.35;;;2.75;;
54517;SDS011;40423;53.176;6.002;2022-12-29T06:24:02;18.65;;;3.42;;
54517;SDS011;40423;53.176;6.002;2022-12-29T06:26:28;17.25;;;2.97;;
54517;SDS011;40423;53.176;6.002;2022-12-29T06:28:54;17.52;;;3.17;;
54517;SDS011;40423;53.176;6.002;2022-12-29T06:31:20;23.85;;;3.20;;
54517;SDS011;40423;53.176;6.002;2022-12-29T06:33:46;20.55;;;3.55;;
54517;SDS011;40423;53.176;6.002;2022-12-29T06:36:15;22.77;;;4.60;;
54517;SDS011;40423;53.176;6.002;2022-12-29T06:38:40;16.05;;;3.75;;
54517;SDS011;40423;53.176;6.002;2022-12-29T06:41:06;26.95;;;4.70;;
54517;SDS011;40423;53.176;6.002;2022-12-29T06:43:32;15.18;;;3.22;;
54517;SDS011;40423;53.176;6.002;2022-12-29T06:45:58;18.15;;;3.53;;
54517;SDS011;40423;53.176;6.002;2022-12-29T06:48:27;25.00;;;4.90;;
54517;SDS011;40423;53.176;6.002;2022-12-29T06:50:52;23.85;;;4.60;;
54517;SDS011;40423;53.176;6.002;2022-12-29T06:53:21;17.67;;;3.97;;
54517;SDS011;40423;53.176;6.002;2022-12-29T06:55:46;19.50;;;3.63;;
54517;SDS011;40423;53.176;6.002;2022-12-29T06:58:12;22.88;;;4.38;;
54517;SDS011;40423;53.176;6.002;2022-12-29T07:00:38;24.67;;;3.90;;
54517;SDS011;40423;53.176;6.002;2022-12-29T07:03:04;18.23;;;3.42;;
54517;SDS011;40423;53.176;6.002;2022-12-29T07:05:30;18.00;;;3.50;;
54517;SDS011;40423;53.176;6.002;2022-12-29T07:07:57;21.95;;;3.80;;
54517;SDS011;40423;53.176;6.002;2022-12-29T07:10:23;17.38;;;3.30;;
54517;SDS011;40423;53.176;6.002;2022-12-29T07:12:49;18.98;;;3.40;;
54517;SDS011;40423;53.176;6.002;2022-12-29T07:15:17;20.75;;;4.68;;
54517;SDS011;40423;53.176;6.002;2022-12-29T07:17:43;18.65;;;3.10;;
54517;SDS011;40423;53.176;6.002;2022-12-29T07:20:09;21.83;;;3.42;;
54517;SDS011;40423;53.176;6.002;2022-12-29T07:22:35;23.02;;;4.47;;
54517;SDS011;40423;53.176;6.002;2022-12-29T07:25:01;20.63;;;3.38;;
54517;SDS011;40423;53.176;6.002;2022-12-29T07:27:28;20.77;;;4.32;;
54517;SDS011;40423;53.176;6.002;2022-12-29T07:29:54;20.77;;;3.90;;
54517;SDS011;40423;53.176;6.002;2022-12-29T07:32:19;18.67;;;4.13;;
54517;SDS011;40423;53.176;6.002;2022-12-29T07:34:45;21.13;;;3.70;;
54517;SDS011;40423;53.176;6.002;2022-12-29T07:37:15;26.38;;;4.72;;
54517;SDS011;40423;53.176;6.002;2022-12-29T07:39:41;26.17;;;4.32;;
54517;SDS011;40423;53.176;6.002;2022-12-29T07:42:07;16.20;;;3.90;;
54517;SDS011;40423;53.176;6.002;2022-12-29T07:44:35;18.60;;;3.67;;
54517;SDS011;40423;53.176;6.002;2022-12-29T07:47:01;17.70;;;3.40;;
54517;SDS011;40423;53.176;6.002;2022-12-29T07:49:27;20.88;;;3.10;;
54517;SDS011;40423;53.176;6.002;2022-12-29T07:51:53;13.48;;;2.97;;
54517;SDS011;40423;53.176;6.002;2022-12-29T07:54:19;15.50;;;3.47;;
54517;SDS011;40423;53.176;6.002;2022-12-29T07:56:45;15.38;;;2.75;;
54517;SDS011;40423;53.176;6.002;2022-12-29T07:59:14;21.40;;;2.85;;
54517;SDS011;40423;53.176;6.002;2022-12-29T08:01:39;18.23;;;3.00;;
54517;SDS011;40423;53.176;6.002;2022-12-29T08:04:05;13.93;;;3.00;;
54517;SDS011;40423;53.176;6.002;2022-12-29T08:06:31;19.25;;;3.45;;
54517;SDS011;40423;53.176;6.002;2022-12-29T08:08:59;20.30;;;3.63;;
54517;SDS011;40423;53.176;6.002;2022-12-29T08:11:26;20.60;;;3.78;;
54517;SDS011;40423;53.176;6.002;2022-12-29T08:13:52;13.30;;;3.45;;
54517;SDS011;40423;53.176;6.002;2022-12-29T08:16:18;16.60;;;3.85;;
54517;SDS011;40423;53.176;6.002;2022-12-29T08:18:46;21.38;;;3.35;;
54517;SDS011;40423;53.176;6.002;2022-12-29T08:21:12;19.20;;;3.47;;
54517;SDS011;40423;53.176;6.002;2022-12-29T08:23:38;29.00;;;4.05;;
54517;SDS011;40423;53.176;6.002;2022-12-29T08:26:04;23.23;;;4.05;;
54517;SDS011;40423;53.176;6.002;2022-12-29T08:28:31;18.10;;;4.90;;
54517;SDS011;40423;53.176;6.002;2022-12-29T08:30:58;26.67;;;3.92;;
54517;SDS011;40423;53.176;6.002;2022-12-29T08:33:25;28.58;;;4.78;;
54517;SDS011;40423;53.176;6.002;2022-12-29T08:35:51;20.52;;;3.55;;
54517;SDS011;40423;53.176;6.002;2022-12-29T08:38:19;20.55;;;4.05;;
54517;SDS011;40423;53.176;6.002;2022-12-29T08:40:48;23.33;;;3.95;;
54517;SDS011;40423;53.176;6.002;2022-12-29T08:43:16;21.60;;;3.70;;
54517;SDS011;40423;53.176;6.002;2022-12-29T08:45:41;21.92;;;4.82;;
54517;SDS011;40423;53.176;6.002;2022-12-29T08:48:07;18.95;;;4.25;;
54517;SDS011;40423;53.176;6.002;2022-12-29T08:50:33;29.50;;;3.70;;
54517;SDS011;40423;53.176;6.002;2022-12-29T08:52:58;25.55;;;4.93;;
54517;SDS011;40423;53.176;6.002;2022-12-29T08:55:24;30.92;;;5.35;;
54517;SDS011;40423;53.176;6.002;2022-12-29T08:57:50;16.27;;;3.75;;
54517;SDS011;40423;53.176;6.002;2022-12-29T09:00:19;26.92;;;4.15;;
54517;SDS011;40423;53.176;6.002;2022-12-29T09:02:45;26.95;;;4.28;;
54517;SDS011;40423;53.176;6.002;2022-12-29T09:05:11;21.23;;;4.57;;
54517;SDS011;40423;53.176;6.002;2022-12-29T09:07:37;31.00;;;5.03;;
54517;SDS011;40423;53.176;6.002;2022-12-29T09:10:03;26.33;;;4.72;;
54517;SDS011;40423;53.176;6.002;2022-12-29T09:12:29;29.02;;;4.82;;
54517;SDS011;40423;53.176;6.002;2022-12-29T09:14:58;22.15;;;4.18;;
54517;SDS011;40423;53.176;6.002;2022-12-29T09:17:24;22.10;;;4.50;;
54517;SDS011;40423;53.176;6.002;2022-12-29T09:20:08;24.98;;;6.35;;
54517;SDS011;40423;53.176;6.002;2022-12-29T09:22:35;25.23;;;4.22;;
54517;SDS011;40423;53.176;6.002;2022-12-29T09:25:01;20.55;;;3.85;;
54517;SDS011;40423;53.176;6.002;2022-12-29T09:27:27;24.80;;;4.50;;
54517;SDS011;40423;53.176;6.002;2022-12-29T09:29:53;24.02;;;4.65;;
54517;SDS011;40423;53.176;6.002;2022-12-29T09:32:18;21.30;;;3.38;;
54517;SDS011;40423;53.176;6.002;2022-12-29T09:34:47;17.95;;;3.80;;
54517;SDS011;40423;53.176;6.002;2022-12-29T09:37:13;21.30;;;3.60;;
54517;SDS011;40423;53.176;6.002;2022-12-29T09:39:38;24.52;;;4.05;;
54517;SDS011;40423;53.176;6.002;2022-12-29T09:47:13;12.73;;;3.50;;
54517;SDS011;40423;53.176;6.002;2022-12-29T09:52:27;19.52;;;3.13;;
54517;SDS011;40423;53.176;6.002;2022-12-29T09:57:35;18.77;;;3.05;;
54517;SDS011;40423;53.176;6.002;2022-12-29T10:00:16;16.38;;;3.50;;
54517;SDS011;40423;53.176;6.002;2022-12-29T10:02:46;18.35;;;5.70;;
54517;SDS011;40423;53.176;6.002;2022-12-29T10:08:07;12.02;;;3.40;;
54517;SDS011;40423;53.176;6.002;2022-12-29T10:10:59;20.55;;;4.05;;
54517;SDS011;40423;53.176;6.002;2022-12-29T10:13:55;19.63;;;3.45;;
54517;SDS011;40423;53.176;6.002;2022-12-29T10:25:11;14.25;;;3.20;;
54517;SDS011;40423;53.176;6.002;2022-12-29T10:27:44;11.32;;;3.22;;
54517;SDS011;40423;53.176;6.002;2022-12-29T10:30:14;20.65;;;3.55;;
54517;SDS011;40423;53.176;6.002;2022-12-29T10:35:18;18.05;;;4.18;;
54517;SDS011;40423;53.176;6.002;2022-12-29T10:40:42;25.40;;;4.40;;
54517;SDS011;40423;53.176;6.002;2022-12-29T10:45:43;27.95;;;4.97;;
54517;SDS011;40423;53.176;6.002;2022-12-29T10:48:11;28.58;;;4.82;;
54517;SDS011;40423;53.176;6.002;2022-12-29T10:50:56;32.50;;;5.25;;
54517;SDS011;40423;53.176;6.002;2022-12-29T10:53:30;29.88;;;5.28;;
54517;SDS011;40423;53.176;6.002;2022-12-29T10:56:03;32.33;;;5.93;;
54517;SDS011;40423;53.176;6.002;2022-12-29T10:58:38;23.67;;;5.60;;
54517;SDS011;40423;53.176;6.002;2022-12-29T11:01:07;26.80;;;5.00;;
54517;SDS011;40423;53.176;6.002;2022-12-29T11:03:41;23.65;;;4.68;;
54517;SDS011;40423;53.176;6.002;2022-12-29T11:06:21;22.08;;;4.35;;
54517;SDS011;40423;53.176;6.002;2022-12-29T11:11:38;29.60;;;6.75;;
54517;SDS011;40423;53.176;6.002;2022-12-29T11:14:11;24.95;;;4.10;;
54517;SDS011;40423;53.176;6.002;2022-12-29T11:16:38;22.55;;;5.50;;
54517;SDS011;40423;53.176;6.002;2022-12-29T11:19:19;21.08;;;4.60;;
54517;SDS011;40423;53.176;6.002;2022-12-29T11:21:46;24.88;;;5.32;;
54517;SDS011;40423;53.176;6.002;2022-12-29T11:26:50;24.48;;;4.55;;
54517;SDS011;40423;53.176;6.002;2022-12-29T11:32:04;26.20;;;6.38;;
54517;SDS011;40423;53.176;6.002;2022-12-29T11:34:43;19.20;;;3.70;;
54517;SDS011;40423;53.176;6.002;2022-12-29T11:37:13;22.02;;;4.93;;
54517;SDS011;40423;53.176;6.002;2022-12-29T11:39:48;23.85;;;4.05;;
54517;SDS011;40423;53.176;6.002;2022-12-29T11:42:17;26.10;;;9.20;;
54517;SDS011;40423;53.176;6.002;2022-12-29T11:44:48;24.27;;;10.02;;
54517;SDS011;40423;53.176;6.002;2022-12-29T11:47:48;20.83;;;3.55;;
54517;SDS011;40423;53.176;6.002;2022-12-29T11:50:15;20.73;;;3.75;;
54517;SDS011;40423;53.176;6.002;2022-12-29T11:53:05;19.50;;;4.03;;
54517;SDS011;40423;53.176;6.002;2022-12-29T11:55:40;23.88;;;4.60;;
54517;SDS011;40423;53.176;6.002;2022-12-29T11:58:20;17.85;;;3.33;;
54517;SDS011;40423;53.176;6.002;2022-12-29T12:00:54;19.23;;;3.25;;
54517;SDS011;40423;53.176;6.002;2022-12-29T12:03:23;18.67;;;4.25;;
54517;SDS011;40423;53.176;6.002;2022-12-29T12:05:56;18.65;;;3.70;;
54517;SDS011;40423;53.176;6.002;2022-12-29T12:11:18;13.23;;;2.90;;
54517;SDS011;40423;53.176;6.002;2022-12-29T12:16:55;21.42;;;3.55;;
54517;SDS011;40423;53.176;6.002;2022-12-29T12:19:56;11.88;;;2.10;;
54517;SDS011;40423;53.176;6.002;2022-12-29T12:25:02;16.83;;;3.22;;
54517;SDS011;40423;53.176;6.002;2022-12-29T12:27:53;13.43;;;2.42;;
54517;SDS011;40423;53.176;6.002;2022-12-29T12:38:18;12.07;;;2.25;;
54517;SDS011;40423;53.176;6.002;2022-12-29T12:40:56;13.80;;;2.40;;
54517;SDS011;40423;53.176;6.002;2022-12-29T12:46:42;11.23;;;2.10;;
54517;SDS011;40423;53.176;6.002;2022-12-29T13:01:05;13.82;;;4.38;;
54517;SDS011;40423;53.176;6.002;2022-12-29T13:04:06;13.02;;;4.80;;
54517;SDS011;40423;53.176;6.002;2022-12-29T13:06:56;14.10;;;2.90;;
54517;SDS011;40423;53.176;6.002;2022-12-29T13:18:00;11.48;;;2.72;;
54517;SDS011;40423;53.176;6.002;2022-12-29T13:25:54;12.18;;;2.38;;
54517;SDS011;40423;53.176;6.002;2022-12-29T13:36:29;16.48;;;3.95;;
54517;SDS011;40423;53.176;6.002;2022-12-29T13:39:04;12.10;;;3.60;;
54517;SDS011;40423;53.176;6.002;2022-12-29T13:42:01;17.50;;;4.60;;
54517;SDS011;40423;53.176;6.002;2022-12-29T13:44:37;9.10;;;1.90;;
54517;SDS011;40423;53.176;6.002;2022-12-29T13:50:03;13.38;;;2.38;;
54517;SDS011;40423;53.176;6.002;2022-12-29T13:52:39;15.48;;;2.90;;
54517;SDS011;40423;53.176;6.002;2022-12-29T13:55:19;10.55;;;3.22;;
54517;SDS011;40423;53.176;6.002;2022-12-29T13:58:05;13.85;;;2.22;;
54517;SDS011;40423;53.176;6.002;2022-12-29T14:05:42;9.23;;;2.67;;
54517;SDS011;40423;53.176;6.002;2022-12-29T14:08:15;13.27;;;2.63;;
54517;SDS011;40423;53.176;6.002;2022-12-29T14:10:47;10.75;;;2.10;;
54517;SDS011;40423;53.176;6.002;2022-12-29T14:13:21;10.23;;;1.88;;
54517;SDS011;40423;53.176;6.002;2022-12-29T14:15:54;11.98;;;2.25;;
54517;SDS011;40423;53.176;6.002;2022-12-29T14:18:24;13.90;;;3.75;;
54517;SDS011;40423;53.176;6.002;2022-12-29T14:21:29;14.98;;;2.97;;
54517;SDS011;40423;53.176;6.002;2022-12-29T14:23:53;12.07;;;2.95;;
54517;SDS011;40423;53.176;6.002;2022-12-29T14:29:15;14.88;;;3.25;;
54517;SDS011;40423;53.176;6.002;2022-12-29T14:31:54;10.10;;;2.20;;
54517;SDS011;40423;53.176;6.002;2022-12-29T14:36:53;15.70;;;2.90;;
54517;SDS011;40423;53.176;6.002;2022-12-29T14:44:51;12.15;;;2.55;;
54517;SDS011;40423;53.176;6.002;2022-12-29T14:47:41;14.93;;;2.92;;
54517;SDS011;40423;53.176;6.002;2022-12-29T14:50:25;15.23;;;2.55;;
54517;SDS011;40423;53.176;6.002;2022-12-29T14:53:51;15.57;;;4.13;;
54517;SDS011;40423;53.176;6.002;2022-12-29T14:56:10;13.55;;;3.45;;
54517;SDS011;40423;53.176;6.002;2022-12-29T14:58:59;10.55;;;2.50;;
54517;SDS011;40423;53.176;6.002;2022-12-29T15:01:39;18.15;;;3.10;;
54517;SDS011;40423;53.176;6.002;2022-12-29T15:04:21;16.73;;;3.45;;
54517;SDS011;40423;53.176;6.002;2022-12-29T15:06:52;10.45;;;2.67;;
54517;SDS011;40423;53.176;6.002;2022-12-29T15:09:29;17.40;;;2.80;;
54517;SDS011;40423;53.176;6.002;2022-12-29T15:12:06;17.30;;;3.20;;
54517;SDS011;40423;53.176;6.002;2022-12-29T15:14:39;13.10;;;3.15;;
54517;SDS011;40423;53.176;6.002;2022-12-29T15:17:33;16.83;;;3.00;;
54517;SDS011;40423;53.176;6.002;2022-12-29T15:20:00;13.73;;;3.15;;
54517;SDS011;40423;53.176;6.002;2022-12-29T15:22:50;14.80;;;2.65;;
54517;SDS011;40423;53.176;6.002;2022-12-29T15:25:19;15.90;;;3.30;;
54517;SDS011;40423;53.176;6.002;2022-12-29T15:27:52;17.15;;;2.90;;
54517;SDS011;40423;53.176;6.002;2022-12-29T15:30:20;15.02;;;3.15;;
54517;SDS011;40423;53.176;6.002;2022-12-29T15:32:46;10.93;;;2.53;;
54517;SDS011;40423;53.176;6.002;2022-12-29T15:35:22;19.80;;;3.72;;
54517;SDS011;40423;53.176;6.002;2022-12-29T15:37:54;18.33;;;3.65;;
54517;SDS011;40423;53.176;6.002;2022-12-29T15:45:29;20.23;;;3.50;;
54517;SDS011;40423;53.176;6.002;2022-12-29T15:47:58;19.77;;;3.70;;
54517;SDS011;40423;53.176;6.002;2022-12-29T15:50:29;16.85;;;3.83;;
54517;SDS011;40423;53.176;6.002;2022-12-29T15:52:57;16.30;;;3.97;;
54517;SDS011;40423;53.176;6.002;2022-12-29T15:55:27;21.05;;;5.53;;
54517;SDS011;40423;53.176;6.002;2022-12-29T15:57:59;18.52;;;3.92;;
54517;SDS011;40423;53.176;6.002;2022-12-29T16:00:30;15.45;;;3.25;;
54517;SDS011;40423;53.176;6.002;2022-12-29T16:03:03;13.20;;;2.53;;
54517;SDS011;40423;53.176;6.002;2022-12-29T16:05:34;12.10;;;2.58;;
54517;SDS011;40423;53.176;6.002;2022-12-29T16:08:01;13.80;;;3.33;;
54517;SDS011;40423;53.176;6.002;2022-12-29T16:10:35;11.38;;;2.22;;
54517;SDS011;40423;53.176;6.002;2022-12-29T16:13:03;8.70;;;2.65;;
54517;SDS011;40423;53.176;6.002;2022-12-29T16:15:49;5.97;;;1.67;;
54517;SDS011;40423;53.176;6.002;2022-12-29T16:18:25;10.02;;;2.97;;
54517;SDS011;40423;53.176;6.002;2022-12-29T16:20:54;8.77;;;2.42;;
54517;SDS011;40423;53.176;6.002;2022-12-29T16:23:25;6.10;;;1.20;;
54517;SDS011;40423;53.176;6.002;2022-12-29T16:25:54;5.20;;;0.95;;
54517;SDS011;40423;53.176;6.002;2022-12-29T16:28:28;8.70;;;1.60;;
54517;SDS011;40423;53.176;6.002;2022-12-29T16:31:05;6.07;;;1.73;;
54517;SDS011;40423;53.176;6.002;2022-12-29T16:33:39;13.05;;;3.63;;
54517;SDS011;40423;53.176;6.002;2022-12-29T16:36:31;10.80;;;3.58;;
54517;SDS011;40423;53.176;6.002;2022-12-29T16:39:15;10.10;;;2.90;;
54517;SDS011;40423;53.176;6.002;2022-12-29T16:41:53;14.32;;;2.42;;
54517;SDS011;40423;53.176;6.002;2022-12-29T16:49:29;8.93;;;2.78;;
54517;SDS011;40423;53.176;6.002;2022-12-29T16:51:57;11.25;;;2.70;;
54517;SDS011;40423;53.176;6.002;2022-12-29T16:54:35;14.90;;;3.25;;
54517;SDS011;40423;53.176;6.002;2022-12-29T16:57:02;10.10;;;2.03;;
54517;SDS011;40423;53.176;6.002;2022-12-29T17:02:06;16.15;;;3.15;;
54517;SDS011;40423;53.176;6.002;2022-12-29T17:04:36;15.32;;;2.80;;
54517;SDS011;40423;53.176;6.002;2022-12-29T17:07:01;11.05;;;2.80;;
54517;SDS011;40423;53.176;6.002;2022-12-29T17:09:27;16.67;;;2.92;;
54517;SDS011;40423;53.176;6.002;2022-12-29T17:11:55;19.45;;;3.63;;
54517;SDS011;40423;53.176;6.002;2022-12-29T17:19:41;19.45;;;3.55;;
54517;SDS011;40423;53.176;6.002;2022-12-29T17:22:20;15.57;;;3.22;;
54517;SDS011;40423;53.176;6.002;2022-12-29T17:24:53;26.77;;;5.75;;
54517;SDS011;40423;53.176;6.002;2022-12-29T17:27:30;28.17;;;8.20;;
54517;SDS011;40423;53.176;6.002;2022-12-29T17:30:04;25.27;;;6.28;;
54517;SDS011;40423;53.176;6.002;2022-12-29T17:32:35;24.02;;;4.80;;
54517;SDS011;40423;53.176;6.002;2022-12-29T17:35:01;19.58;;;3.78;;
54517;SDS011;40423;53.176;6.002;2022-12-29T17:37:31;22.55;;;4.70;;
54517;SDS011;40423;53.176;6.002;2022-12-29T17:40:01;28.92;;;5.45;;
54517;SDS011;40423;53.176;6.002;2022-12-29T17:42:31;24.95;;;6.03;;
54517;SDS011;40423;53.176;6.002;2022-12-29T17:45:00;25.15;;;6.75;;
54517;SDS011;40423;53.176;6.002;2022-12-29T17:47:26;21.60;;;3.85;;
54517;SDS011;40423;53.176;6.002;2022-12-29T17:49:52;19.45;;;4.22;;
54517;SDS011;40423;53.176;6.002;2022-12-29T17:52:18;22.98;;;4.63;;
54517;SDS011;40423;53.176;6.002;2022-12-29T17:54:51;25.42;;;4.78;;
54517;SDS011;40423;53.176;6.002;2022-12-29T17:57:18;25.65;;;5.28;;
54517;SDS011;40423;53.176;6.002;2022-12-29T17:59:44;22.70;;;4.95;;